createdAt,value
2023-03-06T00:01:01.410Z,25.77
2023-03-06T00:03:33.814Z,28.85
2023-03-06T00:06:05.734Z,25.38
2023-03-06T00:08:36.535Z,27.35
2023-03-06T00:11:07.541Z,27.52
2023-03-06T00:13:38.250Z,28.63
2023-03-06T00:16:12.078Z,27.95
2023-03-06T00:18:44.283Z,27.48
2023-03-06T00:21:15.138Z,26.67
2023-03-06T00:23:46.006Z,22.80
2023-03-06T00:26:16.770Z,24.83
2023-03-06T00:28:47.947Z,28.42
2023-03-06T00:31:23.368Z,33.30
2023-03-06T00:33:54.078Z,29.98
2023-03-06T00:36:24.760Z,29.65
2023-03-06T00:38:55.470Z,28.48
2023-03-06T00:41:29.040Z,28.25
2023-03-06T00:44:01.853Z,32.95
2023-03-06T00:46:35.256Z,31.02
2023-03-06T00:49:06.515Z,28.95
2023-03-06T00:51:37.222Z,24.38
2023-03-06T00:54:08.200Z,25.90
2023-03-06T00:56:38.933Z,25.85
2023-03-06T00:59:09.707Z,22.05
2023-03-06T01:01:43.069Z,22.33
2023-03-06T01:04:13.811Z,20.38
2023-03-06T01:06:45.201Z,23.40
2023-03-06T01:09:16.018Z,22.20
2023-03-06T01:11:46.821Z,21.48
2023-03-06T01:14:19.265Z,23.73
2023-03-06T01:16:53.404Z,22.95
2023-03-06T01:19:24.176Z,21.65
2023-03-06T01:21:55.150Z,20.58
2023-03-06T01:24:26.861Z,18.63
2023-03-06T01:27:00.603Z,22.05
2023-03-06T01:29:31.449Z,19.60
2023-03-06T01:32:04.965Z,22.50
2023-03-06T01:34:35.772Z,24.17
2023-03-06T01:37:06.627Z,24.27
2023-03-06T01:39:37.515Z,23.02
2023-03-06T01:42:08.990Z,23.27
2023-03-06T01:44:39.833Z,27.05
2023-03-06T01:47:13.451Z,23.80
2023-03-06T01:49:45.547Z,26.77
2023-03-06T01:52:19.057Z,24.83
2023-03-06T01:54:55.270Z,26.13
2023-03-06T01:57:30.593Z,32.05
2023-03-06T02:00:06.409Z,31.10
2023-03-06T02:02:50.742Z,25.25
2023-03-06T02:05:21.964Z,26.83
2023-03-06T02:07:54.008Z,28.45
2023-03-06T02:10:25.501Z,27.52
2023-03-06T02:12:56.690Z,31.60
2023-03-06T02:15:30.335Z,43.72
2023-03-06T02:18:04.052Z,39.17
2023-03-06T02:20:40.411Z,39.20
2023-03-06T02:23:16.067Z,35.00
2023-03-06T02:25:52.550Z,30.85
2023-03-06T02:28:25.897Z,27.77
2023-03-06T02:30:58.748Z,33.08
2023-03-06T02:33:32.749Z,39.97
2023-03-06T02:36:05.417Z,33.58
2023-03-06T02:38:44.396Z,30.08
2023-03-06T02:41:18.837Z,31.02
2023-03-06T02:43:53.606Z,27.13
2023-03-06T02:46:25.594Z,29.55
2023-03-06T02:48:59.322Z,42.50
2023-03-06T02:51:30.212Z,34.53
2023-03-06T02:54:01.123Z,34.03
2023-03-06T02:56:34.582Z,28.70
2023-03-06T02:59:06.847Z,29.50
2023-03-06T03:01:38.042Z,34.85
2023-03-06T03:04:09.059Z,29.00
2023-03-06T03:06:40.842Z,35.03
2023-03-06T03:09:12.128Z,35.97
2023-03-06T03:11:45.602Z,36.70
2023-03-06T03:14:16.868Z,37.17
2023-03-06T03:16:49.947Z,36.15
2023-03-06T03:19:21.568Z,38.28
2023-03-06T03:21:52.683Z,34.00
2023-03-06T03:24:26.892Z,30.42
2023-03-06T03:27:01.349Z,34.15
2023-03-06T03:29:32.213Z,29.60
2023-03-06T03:32:04.140Z,37.47
2023-03-06T03:34:35.013Z,38.25
2023-03-06T03:37:06.134Z,36.92
2023-03-06T03:39:37.017Z,33.65
2023-03-06T03:42:11.606Z,33.95
2023-03-06T03:44:42.685Z,35.70
2023-03-06T03:47:13.735Z,32.20
2023-03-06T03:49:45.100Z,38.05
2023-03-06T03:52:15.895Z,30.85
2023-03-06T03:54:46.702Z,30.35
2023-03-06T03:57:20.245Z,35.22
2023-03-06T03:59:55.683Z,29.95
2023-03-06T04:02:30.989Z,36.38
2023-03-06T04:05:11.210Z,29.48
2023-03-06T04:07:42.193Z,33.95
2023-03-06T04:10:15.629Z,32.97
2023-03-06T04:12:49.840Z,29.08
2023-03-06T04:15:21.236Z,45.42
2023-03-06T04:17:52.646Z,44.40
2023-03-06T04:20:28.506Z,44.80
2023-03-06T04:23:04.491Z,33.58
2023-03-06T04:25:36.177Z,37.72
2023-03-06T04:28:12.480Z,27.50
2023-03-06T04:30:44.181Z,27.95
2023-03-06T04:33:15.580Z,35.47
2023-03-06T04:35:47.412Z,30.75
2023-03-06T04:38:23.872Z,31.05
2023-03-06T04:40:54.843Z,31.88
2023-03-06T04:43:28.430Z,32.22
2023-03-06T04:46:00.990Z,29.67
2023-03-06T04:48:31.861Z,28.80
2023-03-06T04:51:02.593Z,34.83
2023-03-06T04:53:33.390Z,31.58
2023-03-06T04:56:04.122Z,33.35
2023-03-06T04:58:37.551Z,34.88
2023-03-06T05:01:08.743Z,34.13
2023-03-06T05:03:39.543Z,37.70
2023-03-06T05:06:10.970Z,36.00
2023-03-06T05:08:41.907Z,37.47
2023-03-06T05:11:12.925Z,59.38
2023-03-06T05:13:46.322Z,44.78
2023-03-06T05:16:17.166Z,54.50
2023-03-06T05:18:50.467Z,80.10
2023-03-06T05:21:21.449Z,59.78
2023-03-06T05:23:52.228Z,55.85
2023-03-06T05:26:23.086Z,34.20
2023-03-06T05:28:56.612Z,29.23
2023-03-06T05:31:29.726Z,29.40
2023-03-06T05:34:01.637Z,29.20
2023-03-06T05:36:32.398Z,31.77
2023-03-06T05:39:03.172Z,29.23
2023-03-06T05:41:34.075Z,27.00
2023-03-06T05:44:07.455Z,25.83
2023-03-06T05:46:41.374Z,28.63
2023-03-06T05:49:12.219Z,26.92
2023-03-06T05:51:43.042Z,25.75
2023-03-06T05:54:13.958Z,28.15
2023-03-06T05:56:44.930Z,29.45
2023-03-06T05:59:18.370Z,23.75
2023-03-06T06:01:48.602Z,28.35
2023-03-06T06:04:18.867Z,26.67
2023-03-06T06:06:49.074Z,24.20
2023-03-06T06:09:19.311Z,27.67
2023-03-06T06:11:49.539Z,26.08
2023-03-06T06:14:22.436Z,25.88
2023-03-06T06:16:53.477Z,28.17
2023-03-06T06:19:24.127Z,26.85
2023-03-06T06:21:55.915Z,23.52
2023-03-06T06:24:28.429Z,24.65
2023-03-06T06:27:02.654Z,26.60
2023-03-06T06:29:37.101Z,26.10
2023-03-06T06:32:07.714Z,22.85
2023-03-06T06:34:38.029Z,31.75
2023-03-06T06:37:08.377Z,30.70
2023-03-06T06:39:38.672Z,25.55
2023-03-06T06:42:30.239Z,26.40
2023-03-06T06:45:03.198Z,32.13
2023-03-06T06:47:34.427Z,25.30
2023-03-06T06:50:04.837Z,23.52
2023-03-06T06:52:35.156Z,25.13
2023-03-06T06:55:05.477Z,26.95
2023-03-06T06:57:35.744Z,24.92
2023-03-06T07:00:12.541Z,22.70
2023-03-06T07:02:42.850Z,23.98
2023-03-06T07:05:13.706Z,27.42
2023-03-06T07:07:45.068Z,26.15
2023-03-06T07:10:19.959Z,26.98
2023-03-06T07:12:50.927Z,26.27
2023-03-06T07:15:26.841Z,26.58
2023-03-06T07:17:57.145Z,30.08
2023-03-06T07:20:27.645Z,26.40
2023-03-06T07:22:58.135Z,30.67
2023-03-06T07:25:28.434Z,24.17
2023-03-06T07:27:59.014Z,28.92
2023-03-06T07:30:32.074Z,32.17
2023-03-06T07:33:02.580Z,25.58
2023-03-06T07:35:32.902Z,25.45
2023-03-06T07:38:03.374Z,26.23
2023-03-06T07:40:33.692Z,25.77
2023-03-06T07:43:18.372Z,29.75
2023-03-06T07:46:02.285Z,34.53
2023-03-06T07:48:32.524Z,27.15
2023-03-06T07:51:04.159Z,27.00
2023-03-06T07:53:35.095Z,25.23
2023-03-06T07:56:09.474Z,20.58
2023-03-06T07:58:41.022Z,23.27
2023-03-06T08:01:16.123Z,24.33
2023-03-06T08:03:46.679Z,23.75
2023-03-06T08:06:19.564Z,22.65
2023-03-06T08:08:50.951Z,25.00
2023-03-06T08:11:23.632Z,18.85
2023-03-06T08:13:54.016Z,20.38
2023-03-06T08:16:29.252Z,25.52
2023-03-06T08:19:00.410Z,23.50
2023-03-06T08:21:31.423Z,25.48
2023-03-06T08:24:01.754Z,21.73
2023-03-06T08:26:34.101Z,23.08
2023-03-06T08:29:05.309Z,24.27
2023-03-06T08:31:40.453Z,23.13
2023-03-06T08:34:13.150Z,23.27
2023-03-06T08:36:43.743Z,22.60
2023-03-06T08:39:14.579Z,23.52
2023-03-06T08:41:45.028Z,24.98
2023-03-06T08:44:16.035Z,23.98
2023-03-06T08:46:49.097Z,24.77
2023-03-06T08:49:19.365Z,24.08
2023-03-06T08:51:49.595Z,26.10
2023-03-06T08:54:19.871Z,23.63
2023-03-06T08:56:50.660Z,22.38
2023-03-06T08:59:20.975Z,20.85
2023-03-06T09:01:53.926Z,23.02
2023-03-06T09:04:24.393Z,53.17
2023-03-06T09:06:55.606Z,29.77
2023-03-06T09:09:25.984Z,22.77
2023-03-06T09:11:56.461Z,24.42
2023-03-06T09:14:27.086Z,23.15
2023-03-06T09:16:59.996Z,22.50
2023-03-06T09:19:30.376Z,22.40
2023-03-06T09:22:01.161Z,24.50
2023-03-06T09:24:31.514Z,21.42
2023-03-06T09:27:02.016Z,21.63
2023-03-06T09:29:32.511Z,21.73
2023-03-06T09:32:05.568Z,20.80
2023-03-06T09:34:36.252Z,21.63
2023-03-06T09:37:06.906Z,23.58
2023-03-06T09:39:37.188Z,21.52
2023-03-06T09:42:14.676Z,19.48
2023-03-06T09:44:46.119Z,18.85
2023-03-06T09:47:41.162Z,27.88
2023-03-06T09:50:21.070Z,24.63
2023-03-06T09:53:10.359Z,24.13
2023-03-06T09:55:44.220Z,24.45
2023-03-06T09:58:19.454Z,21.70
2023-03-06T10:01:00.496Z,22.67
2023-03-06T10:03:39.275Z,19.55
2023-03-06T10:06:17.898Z,13.88
2023-03-06T10:08:54.411Z,16.95
2023-03-06T10:11:29.277Z,17.02
2023-03-06T10:14:16.896Z,18.80
2023-03-06T10:16:47.352Z,22.25
2023-03-06T10:19:22.209Z,43.65
2023-03-06T10:22:03.930Z,25.65
2023-03-06T10:24:53.043Z,19.05
2023-03-06T10:27:37.363Z,19.30
2023-03-06T10:30:24.220Z,19.95
2023-03-06T10:32:58.850Z,20.00
2023-03-06T10:35:35.593Z,17.67
2023-03-06T10:38:21.172Z,21.40
2023-03-06T10:41:09.034Z,20.20
2023-03-06T10:43:41.537Z,24.98
2023-03-06T10:46:14.682Z,26.25
2023-03-06T10:48:45.710Z,20.17
2023-03-06T10:51:23.890Z,22.90
2023-03-06T10:53:56.641Z,22.45
2023-03-06T10:56:32.024Z,23.40
2023-03-06T10:59:10.390Z,19.40
2023-03-06T11:01:41.492Z,19.13
2023-03-06T11:04:24.706Z,21.77
2023-03-06T11:07:18.085Z,22.17
2023-03-06T11:10:01.881Z,23.80
2023-03-06T11:12:34.913Z,17.90
2023-03-06T11:15:21.360Z,19.45
2023-03-06T11:17:55.329Z,27.73
2023-03-06T11:20:33.574Z,21.88
2023-03-06T11:23:19.053Z,18.27
2023-03-06T11:25:53.397Z,20.70
2023-03-06T11:28:28.895Z,16.65
2023-03-06T11:31:03.924Z,19.33
2023-03-06T11:33:39.297Z,20.17
2023-03-06T11:36:17.318Z,18.45
2023-03-06T11:38:52.760Z,24.33
2023-03-06T11:41:34.034Z,21.55
2023-03-06T11:44:10.785Z,21.05
2023-03-06T11:46:43.681Z,19.63
2023-03-06T11:49:25.666Z,23.35
2023-03-06T11:51:58.970Z,20.83
2023-03-06T11:54:31.839Z,22.52
2023-03-06T11:57:07.235Z,19.42
2023-03-06T11:59:57.691Z,18.98
2023-03-06T12:02:42.454Z,17.80
2023-03-06T12:05:39.695Z,20.52
2023-03-06T12:08:29.244Z,21.10
2023-03-06T12:11:13.006Z,15.57
2023-03-06T12:14:01.050Z,20.90
2023-03-06T12:17:12.147Z,15.50
2023-03-06T12:22:32.499Z,25.55
2023-03-06T12:25:26.978Z,20.02
2023-03-06T12:28:26.492Z,19.67
2023-03-06T12:31:24.636Z,23.00
2023-03-06T12:34:07.470Z,17.08
2023-03-06T12:36:47.627Z,15.40
2023-03-06T12:39:32.200Z,17.15
2023-03-06T12:42:36.604Z,18.30
2023-03-06T12:45:29.720Z,17.25
2023-03-06T12:48:00.992Z,20.45
2023-03-06T12:50:33.464Z,19.17
2023-03-06T12:53:08.428Z,17.58
2023-03-06T12:55:43.933Z,18.50
2023-03-06T12:58:44.222Z,20.67
2023-03-06T13:01:30.873Z,17.02
2023-03-06T13:04:25.018Z,17.30
2023-03-06T13:07:09.781Z,20.63
2023-03-06T13:09:55.247Z,17.23
2023-03-06T13:12:38.845Z,23.80
2023-03-06T13:15:51.164Z,15.85
2023-03-06T13:18:59.888Z,19.60
2023-03-06T13:22:12.086Z,22.38
2023-03-06T13:24:45.625Z,16.60
2023-03-06T13:27:36.063Z,18.85
2023-03-06T13:30:25.855Z,19.35
2023-03-06T13:32:57.502Z,19.35
2023-03-06T13:35:57.479Z,15.80
2023-03-06T13:38:37.053Z,17.67
2023-03-06T13:41:45.069Z,16.00
2023-03-06T13:44:42.650Z,18.25
2023-03-06T13:47:30.205Z,17.92
2023-03-06T13:52:42.593Z,17.40
2023-03-06T13:55:30.270Z,15.93
2023-03-06T13:58:19.136Z,16.38
2023-03-06T14:01:09.983Z,15.98
2023-03-06T14:04:10.132Z,19.15
2023-03-06T14:06:54.778Z,19.27
2023-03-06T14:09:29.766Z,20.73
2023-03-06T14:12:05.190Z,20.67
2023-03-06T14:14:43.073Z,20.85
2023-03-06T14:17:26.230Z,19.20
2023-03-06T14:19:58.193Z,17.30
2023-03-06T14:22:28.668Z,19.10
2023-03-06T14:25:02.587Z,18.67
2023-03-06T14:27:45.296Z,19.23
2023-03-06T14:30:21.094Z,14.90
2023-03-06T14:32:53.478Z,16.33
2023-03-06T14:35:30.167Z,16.50
2023-03-06T14:38:03.477Z,15.98
2023-03-06T14:40:37.041Z,14.38
2023-03-06T14:43:15.353Z,16.75
2023-03-06T14:45:59.625Z,13.30
2023-03-06T14:48:41.879Z,19.05
2023-03-06T14:51:19.680Z,19.10
2023-03-06T14:53:52.298Z,13.20
2023-03-06T14:56:24.948Z,14.63
2023-03-06T14:58:59.356Z,15.18
2023-03-06T15:01:37.094Z,13.25
2023-03-06T15:04:15.422Z,13.85
2023-03-06T15:06:47.344Z,15.65
2023-03-06T15:09:24.344Z,16.13
2023-03-06T15:14:33.859Z,14.05
2023-03-06T15:17:32.075Z,15.02
2023-03-06T15:20:03.994Z,19.65
2023-03-06T15:22:38.195Z,15.60
2023-03-06T15:25:24.191Z,17.35
2023-03-06T15:27:56.253Z,12.70
2023-03-06T15:30:29.629Z,13.95
2023-03-06T15:33:27.955Z,14.73
2023-03-06T15:36:01.050Z,15.15
2023-03-06T15:38:41.229Z,15.80
2023-03-06T15:41:25.190Z,14.48
2023-03-06T15:43:55.548Z,12.88
2023-03-06T15:46:25.858Z,20.00
2023-03-06T15:49:03.238Z,18.45
2023-03-06T15:51:34.863Z,12.93
2023-03-06T15:54:12.178Z,9.75
2023-03-06T15:56:45.579Z,7.85
2023-03-06T15:59:21.064Z,8.02
2023-03-06T16:01:51.875Z,8.52
2023-03-06T16:04:24.840Z,8.10
2023-03-06T16:06:55.452Z,8.57
2023-03-06T16:09:25.736Z,11.82
2023-03-06T16:11:56.617Z,9.10
2023-03-06T16:14:27.092Z,11.50
2023-03-06T16:16:57.611Z,12.57
2023-03-06T16:19:30.453Z,11.65
2023-03-06T16:22:01.068Z,9.35
2023-03-06T16:24:31.419Z,9.43
2023-03-06T16:27:04.268Z,9.18
2023-03-06T16:29:35.214Z,9.10
2023-03-06T16:32:05.854Z,10.48
2023-03-06T16:34:38.767Z,14.38
2023-03-06T16:37:12.184Z,9.90
2023-03-06T16:39:42.668Z,14.35
2023-03-06T16:42:12.911Z,11.63
2023-03-06T16:44:43.224Z,10.02
2023-03-06T16:47:14.616Z,10.48
2023-03-06T16:49:47.569Z,11.60
2023-03-06T16:52:17.999Z,11.25
2023-03-06T16:54:48.282Z,13.60
2023-03-06T16:57:18.526Z,12.38
2023-03-06T16:59:48.821Z,12.18
2023-03-06T17:02:19.317Z,10.27
2023-03-06T17:04:52.273Z,10.90
2023-03-06T17:07:22.509Z,14.48
2023-03-06T17:09:53.263Z,13.23
2023-03-06T17:12:23.576Z,17.38
2023-03-06T17:14:54.611Z,15.07
2023-03-06T17:17:24.929Z,10.70
2023-03-06T17:19:57.947Z,13.93
2023-03-06T17:22:29.515Z,14.85
2023-03-06T17:24:59.784Z,13.52
2023-03-06T17:27:30.100Z,13.32
2023-03-06T17:30:00.927Z,17.17
2023-03-06T17:32:32.796Z,13.20
2023-03-06T17:35:05.839Z,12.20
2023-03-06T17:37:36.439Z,14.88
2023-03-06T17:40:09.751Z,15.82
2023-03-06T17:42:40.023Z,22.20
2023-03-06T17:45:12.166Z,16.58
2023-03-06T17:47:42.534Z,19.85
2023-03-06T17:50:15.888Z,18.45
2023-03-06T17:52:46.171Z,12.85
2023-03-06T17:55:16.428Z,15.10
2023-03-06T17:57:46.692Z,15.68
2023-03-06T18:00:17.699Z,15.88
2023-03-06T18:02:48.053Z,14.15
2023-03-06T18:05:21.917Z,14.77
2023-03-06T18:07:52.268Z,13.82
2023-03-06T18:10:22.943Z,18.95
2023-03-06T18:12:53.304Z,13.23
2023-03-06T18:15:23.682Z,13.32
2023-03-06T18:17:54.816Z,10.23
2023-03-06T18:20:27.733Z,17.48
2023-03-06T18:23:03.489Z,13.82
2023-03-06T18:25:34.452Z,15.05
2023-03-06T18:28:06.099Z,15.70
2023-03-06T18:30:39.136Z,13.50
2023-03-06T18:33:09.512Z,24.52
2023-03-06T18:35:44.182Z,17.63
2023-03-06T18:38:14.650Z,13.23
2023-03-06T18:40:45.055Z,15.10
2023-03-06T18:43:15.321Z,15.35
2023-03-06T18:45:45.631Z,13.63
2023-03-06T18:48:16.011Z,12.43
2023-03-06T18:50:48.862Z,14.90
2023-03-06T18:53:20.069Z,13.18
2023-03-06T18:55:51.054Z,14.77
2023-03-06T18:58:21.580Z,18.42
2023-03-06T19:00:52.138Z,15.63
2023-03-06T19:03:22.634Z,15.23
2023-03-06T19:05:55.949Z,14.18
2023-03-06T19:08:26.238Z,14.60
2023-03-06T19:10:56.588Z,16.52
2023-03-06T19:13:26.973Z,16.10
2023-03-06T19:15:57.787Z,13.50
2023-03-06T19:18:29.593Z,14.70
2023-03-06T19:21:13.347Z,17.08
2023-03-06T19:23:43.850Z,15.95
2023-03-06T19:26:14.362Z,12.93
2023-03-06T19:28:45.898Z,12.48
2023-03-06T19:31:19.594Z,16.50
2023-03-06T19:33:53.104Z,13.07
2023-03-06T19:36:29.257Z,13.27
2023-03-06T19:39:00.812Z,13.13
2023-03-06T19:41:31.648Z,13.57
2023-03-06T19:44:05.773Z,13.27
2023-03-06T19:46:36.404Z,10.55
2023-03-06T19:49:12.200Z,14.45
2023-03-06T19:51:45.442Z,15.00
2023-03-06T19:54:16.313Z,11.65
2023-03-06T19:56:46.586Z,15.68
2023-03-06T19:59:16.959Z,15.57
2023-03-06T20:01:47.749Z,11.63
2023-03-06T20:04:18.159Z,14.57
2023-03-06T20:06:52.767Z,13.55
2023-03-06T20:09:23.050Z,13.85
2023-03-06T20:11:53.245Z,16.60
2023-03-06T20:14:23.590Z,13.40
2023-03-06T20:16:54.138Z,13.32
2023-03-06T20:19:24.739Z,18.08
2023-03-06T20:21:57.657Z,17.58
2023-03-06T20:24:27.929Z,14.55
2023-03-06T20:26:59.565Z,16.17
2023-03-06T20:29:30.008Z,13.50
2023-03-06T20:32:00.675Z,19.73
2023-03-06T20:34:31.171Z,14.93
2023-03-06T20:37:04.169Z,12.60
2023-03-06T20:39:34.613Z,15.05
2023-03-06T20:42:05.804Z,15.48
2023-03-06T20:44:36.361Z,15.85
2023-03-06T20:47:06.844Z,13.55
2023-03-06T20:49:37.437Z,15.38
2023-03-06T20:52:10.463Z,13.45
2023-03-06T20:54:41.202Z,14.13
2023-03-06T20:57:11.502Z,12.23
2023-03-06T20:59:42.010Z,12.90
2023-03-06T21:02:14.935Z,15.07
2023-03-06T21:04:45.265Z,12.38
2023-03-06T21:07:18.093Z,15.10
2023-03-06T21:09:49.835Z,13.82
2023-03-06T21:12:20.228Z,12.18
2023-03-06T21:14:50.490Z,13.15
2023-03-06T21:17:20.743Z,12.10
2023-03-06T21:19:52.066Z,9.73
2023-03-06T21:22:25.028Z,11.75
2023-03-06T21:24:55.339Z,11.40
2023-03-06T21:27:25.960Z,11.88
2023-03-06T21:29:56.539Z,11.63
2023-03-06T21:32:26.959Z,11.02
2023-03-06T21:34:57.285Z,11.40
2023-03-06T21:37:30.346Z,11.93
2023-03-06T21:40:02.074Z,12.43
2023-03-06T21:42:38.584Z,10.52
2023-03-06T21:45:14.083Z,11.23
2023-03-06T21:47:47.495Z,12.13
2023-03-06T21:50:18.292Z,12.02
2023-03-06T21:52:51.286Z,10.82
2023-03-06T21:55:22.036Z,10.75
2023-03-06T21:57:53.316Z,10.25
2023-03-06T22:00:25.892Z,9.70
2023-03-06T22:02:56.141Z,9.38
2023-03-06T22:05:27.897Z,9.90
2023-03-06T22:08:01.121Z,10.10
2023-03-06T22:10:31.431Z,11.23
2023-03-06T22:13:01.885Z,11.30
2023-03-06T22:15:32.243Z,13.23
2023-03-06T22:18:02.490Z,12.00
2023-03-06T22:20:32.778Z,10.55
2023-03-06T22:23:05.635Z,10.27
2023-03-06T22:25:37.623Z,9.93
2023-03-06T22:28:07.971Z,12.73
2023-03-06T22:30:38.213Z,9.68
2023-03-06T22:33:08.527Z,11.20
2023-03-06T22:35:38.763Z,10.27
2023-03-06T22:38:11.708Z,13.00
2023-03-06T22:40:41.946Z,11.18
2023-03-06T22:43:12.327Z,8.40
2023-03-06T22:45:42.597Z,16.15
2023-03-06T22:48:12.859Z,12.13
2023-03-06T22:50:43.126Z,11.63
2023-03-06T22:53:15.956Z,13.18
2023-03-06T22:55:46.304Z,20.80
2023-03-06T22:58:16.605Z,16.85
2023-03-06T23:00:46.975Z,9.93
2023-03-06T23:03:17.269Z,11.75
2023-03-06T23:05:47.770Z,12.10
2023-03-06T23:08:20.642Z,10.70
2023-03-06T23:10:50.822Z,16.52
2023-03-06T23:13:40.067Z,16.17
2023-03-06T23:16:29.273Z,14.88
2023-03-06T23:19:18.232Z,10.60
2023-03-06T23:22:06.950Z,11.30
2023-03-06T23:24:58.471Z,14.65
2023-03-06T23:27:29.538Z,9.65
2023-03-06T23:29:59.810Z,13.45
2023-03-06T23:32:30.169Z,12.27
2023-03-06T23:35:00.649Z,9.82
2023-03-06T23:37:31.126Z,14.02
2023-03-06T23:40:07.828Z,14.48
2023-03-06T23:42:38.155Z,25.75
2023-03-06T23:45:09.844Z,13.20
2023-03-06T23:47:40.102Z,10.48
2023-03-06T23:50:11.389Z,10.48
2023-03-06T23:52:41.970Z,10.15
2023-03-06T23:55:15.215Z,9.68
2023-03-06T23:57:45.520Z,9.05
